Time;durP1;ratioP1;P1;durP2;ratioP2;P2;SDS_P1;SDS_P2;PMS_P1;PMS_P2;Temp;Humidity;BMP_temperature;BMP_pressure;BME280_temperature;BME280_humidity;BME280_pressure;Samples;Min_cycle;Max_cycle;Signal;HPM_P1;HPM_P2
2023/05/16 00:00:51;;;;;;;;;;;;;;;17.90;74.17;99515.78;5092954;28;19912;-36
2023/05/16 00:03:18;;;;;;;;;;;;;;;17.92;74.07;99514.44;5092451;28;19919;-36
2023/05/16 00:05:43;;;;;;;;;;;;;;;18.05;73.80;99509.66;5092680;28;19912;-37
2023/05/16 00:08:08;;;;;;;;;;;;;;;17.98;73.71;99507.22;5092209;28;19916;-37
2023/05/16 00:10:34;;;;;;;;;;;;;;;17.97;73.82;99510.94;5092712;28;20038;-37
2023/05/16 00:13:00;;;;;;;;;;;;;;;18.05;73.36;99513.19;5092771;28;19934;-37
2023/05/16 00:15:26;;;;;;;;;;;;;;;18.00;73.32;99510.44;5092060;28;19969;-37
2023/05/16 00:17:51;;;;;;;;;;;;;;;17.99;73.20;99503.44;5092314;28;20016;-37
2023/05/16 00:20:22;;;;;;;;;;;;;;;18.03;73.30;99501.88;5092835;28;19912;-36
2023/05/16 00:22:47;;;;;;;;;;;;;;;18.09;73.04;99508.91;5092243;28;19923;-36
2023/05/16 00:25:12;;;;;;;;;;;;;;;18.02;73.39;99502.13;5091836;28;19913;-37
2023/05/16 00:27:37;;;;;;;;;;;;;;;18.01;73.04;99498.63;5092268;28;20027;-37
2023/05/16 00:30:03;;;;;;;;;;;;;;;17.94;73.47;99506.09;5092303;28;20316;-37
2023/05/16 00:32:28;;;;;;;;;;;;;;;17.93;73.81;99501.78;5092462;28;19955;-37
2023/05/16 00:34:54;;;;;;;;;;;;;;;17.85;73.84;99500.38;5092112;28;19912;-36
2023/05/16 00:37:19;;;;;;;;;;;;;;;17.91;73.73;99502.03;5091968;28;19959;-37
2023/05/16 00:39:44;;;;;;;;;;;;;;;17.93;73.53;99505.31;5091911;28;19920;-35
2023/05/16 00:42:10;;;;;;;;;;;;;;;17.89;73.82;99493.41;5092056;28;19912;-36
2023/05/16 00:44:35;;;;;;;;;;;;;;;17.76;74.55;99489.25;5092171;28;19916;-35
2023/05/16 00:47:01;;;;;;;;;;;;;;;17.92;73.87;99492.91;5091966;28;19999;-36
2023/05/16 00:49:27;;;;;;;;;;;;;;;17.97;73.91;99492.13;5091884;28;20368;-36
2023/05/16 00:51:52;;;;;;;;;;;;;;;18.05;73.54;99498.91;5091833;28;19912;-36
2023/05/16 00:54:21;;;;;;;;;;;;;;;17.97;73.01;99487.56;5091752;28;20303;-41
2023/05/16 00:56:46;;;;;;;;;;;;;;;17.93;73.59;99480.25;5091699;28;19912;-41
2023/05/16 00:59:12;;;;;;;;;;;;;;;17.76;74.06;99483.03;5091944;28;19923;-41
2023/05/16 01:01:37;;;;;;;;;;;;;;;17.79;74.07;99488.72;5091346;28;19999;-40
2023/05/16 01:04:03;;;;;;;;;;;;;;;17.77;74.42;99479.28;5091651;28;20084;-40
2023/05/16 01:06:28;;;;;;;;;;;;;;;17.93;73.72;99481.06;5091315;28;19916;-40
2023/05/16 01:08:53;;;;;;;;;;;;;;;17.85;73.75;99478.84;5091164;28;19916;-40
2023/05/16 01:11:22;;;;;;;;;;;;;;;17.61;74.22;99473.00;5091268;28;19919;-40
2023/05/16 01:14:08;;;;;;;;;;;;;;;17.55;75.27;99482.06;5091927;28;20339;-41
2023/05/16 01:16:57;;;;;;;;;;;;;;;17.65;74.97;99490.25;5091408;28;19961;-40
2023/05/16 01:19:32;;;;;;;;;;;;;;;17.38;75.58;99468.72;5091229;28;19912;-41
2023/05/16 01:22:16;;;;;;;;;;;;;;;17.36;75.78;99473.53;5091284;28;19912;-40
2023/05/16 01:24:50;;;;;;;;;;;;;;;17.32;76.51;99475.94;5090719;28;20045;-40
2023/05/16 01:27:16;;;;;;;;;;;;;;;17.21;76.95;99471.53;5090917;28;19924;-40
2023/05/16 01:29:41;;;;;;;;;;;;;;;17.26;76.38;99460.81;5091406;28;20289;-41
2023/05/16 01:32:07;;;;;;;;;;;;;;;17.32;76.39;99465.16;5090423;28;19916;-40
2023/05/16 01:34:32;;;;;;;;;;;;;;;17.40;76.03;99463.91;5090642;28;20427;-41
2023/05/16 01:37:03;;;;;;;;;;;;;;;17.48;75.62;99455.38;5091373;28;19916;-41
2023/05/16 01:39:32;;;;;;;;;;;;;;;17.47;75.81;99453.75;5080009;28;20054;-42
2023/05/16 01:42:06;;;;;;;;;;;;;;;17.43;75.95;99457.22;5091107;28;19935;-42
2023/05/16 01:44:50;;;;;;;;;;;;;;;17.60;75.26;99449.81;5091173;28;19912;-41
2023/05/16 01:47:18;;;;;;;;;;;;;;;17.42;75.62;99447.50;5091143;28;19912;-41
2023/05/16 01:50:09;;;;;;;;;;;;;;;17.40;75.77;99458.53;5091097;28;20006;-42
2023/05/16 01:52:41;;;;;;;;;;;;;;;17.31;75.87;99452.00;5089927;28;19938;-43
2023/05/16 01:55:11;;;;;;;;;;;;;;;17.22;76.46;99445.47;5083652;28;19969;-42
2023/05/16 01:57:37;;;;;;;;;;;;;;;17.25;76.30;99444.94;5090982;28;19913;-41
2023/05/16 02:00:02;;;;;;;;;;;;;;;17.26;76.24;99436.63;5090831;28;19919;-42
2023/05/16 02:02:27;;;;;;;;;;;;;;;17.19;76.46;99427.94;5090850;28;20004;-43
2023/05/16 02:04:52;;;;;;;;;;;;;;;17.03;77.17;99421.63;5091195;28;19912;-43
2023/05/16 02:07:18;;;;;;;;;;;;;;;16.93;77.36;99422.31;5090517;28;20256;-41
2023/05/16 02:09:43;;;;;;;;;;;;;;;17.20;76.70;99414.25;5090044;28;20012;-41
2023/05/16 02:12:08;;;;;;;;;;;;;;;17.22;76.75;99414.00;5090692;28;20066;-42
2023/05/16 02:14:34;;;;;;;;;;;;;;;17.23;76.36;99414.81;5090796;28;19945;-42
2023/05/16 02:16:59;;;;;;;;;;;;;;;17.17;76.86;99417.47;5090678;28;19916;-42
2023/05/16 02:19:24;;;;;;;;;;;;;;;17.19;77.19;99420.72;5090705;28;19912;-42
2023/05/16 02:21:50;;;;;;;;;;;;;;;17.38;76.06;99418.44;5090791;28;19920;-42
2023/05/16 02:24:15;;;;;;;;;;;;;;;17.54;75.47;99421.28;5090440;28;19985;-41
2023/05/16 02:26:40;;;;;;;;;;;;;;;17.55;74.97;99423.72;5090770;28;19963;-41
2023/05/16 02:29:06;;;;;;;;;;;;;;;17.49;74.88;99415.84;5091082;28;20038;-41
2023/05/16 02:31:32;;;;;;;;;;;;;;;17.26;76.06;99417.00;5090462;28;20284;-41
2023/05/16 02:33:58;;;;;;;;;;;;;;;17.22;76.55;99411.31;5090363;28;19912;-43
2023/05/16 02:36:23;;;;;;;;;;;;;;;17.11;76.78;99413.09;5092524;28;20433;-42
2023/05/16 02:38:49;;;;;;;;;;;;;;;17.23;75.51;99412.13;5093807;28;19919;-43
2023/05/16 02:41:15;;;;;;;;;;;;;;;17.30;75.58;99402.78;5093609;28;19919;-41
2023/05/16 02:43:40;;;;;;;;;;;;;;;17.30;75.87;99399.28;5094247;28;19969;-41
2023/05/16 02:46:18;;;;;;;;;;;;;;;17.38;74.98;99399.63;5088213;28;19912;-42
2023/05/16 02:48:44;;;;;;;;;;;;;;;17.49;74.65;99397.00;5093686;28;20011;-42
2023/05/16 02:51:09;;;;;;;;;;;;;;;17.51;74.08;99394.88;5087617;28;19999;-42
2023/05/16 02:53:34;;;;;;;;;;;;;;;17.51;73.79;99389.50;5093351;28;19991;-41
2023/05/16 02:56:00;;;;;;;;;;;;;;;17.28;74.91;99394.16;5093598;28;19912;-42
2023/05/16 02:58:25;;;;;;;;;;;;;;;17.28;75.82;99394.16;5093483;28;20044;-41
2023/05/16 03:00:51;;;;;;;;;;;;;;;17.36;75.34;99409.84;5093731;28;19912;-42
2023/05/16 03:03:16;;;;;;;;;;;;;;;17.27;75.37;99407.84;5091065;28;20038;-42
2023/05/16 03:05:42;;;;;;;;;;;;;;;17.34;75.25;99413.81;5092543;28;19927;-41
2023/05/16 03:08:07;;;;;;;;;;;;;;;17.45;75.09;99428.97;5093163;28;20375;-41
2023/05/16 03:10:32;;;;;;;;;;;;;;;17.36;75.08;99427.81;5093472;28;19919;-43
2023/05/16 03:12:58;;;;;;;;;;;;;;;17.44;74.95;99421.16;5093372;28;20353;-42
2023/05/16 03:15:23;;;;;;;;;;;;;;;17.52;74.53;99424.22;5093871;28;19923;-42
2023/05/16 03:17:48;;;;;;;;;;;;;;;17.56;74.27;99425.31;5092137;28;20292;-42
2023/05/16 03:20:14;;;;;;;;;;;;;;;17.44;74.19;99413.09;5090261;28;19948;-42
2023/05/16 03:22:39;;;;;;;;;;;;;;;17.48;73.96;99436.56;5092731;28;19969;-42
2023/05/16 03:25:05;;;;;;;;;;;;;;;17.31;75.22;99427.81;5092952;28;19947;-42
2023/05/16 03:27:30;;;;;;;;;;;;;;;17.20;75.20;99426.88;5092656;28;19928;-42
2023/05/16 03:29:55;;;;;;;;;;;;;;;16.92;77.15;99441.38;5092803;28;20399;-41
2023/05/16 03:32:21;;;;;;;;;;;;;;;17.05;76.41;99446.34;5092739;28;20339;-42
2023/05/16 03:34:46;;;;;;;;;;;;;;;17.09;75.88;99425.97;5092996;28;20371;-42
2023/05/16 03:37:13;;;;;;;;;;;;;;;17.08;76.89;99416.28;5092668;28;19912;-41
2023/05/16 03:39:39;;;;;;;;;;;;;;;17.23;76.14;99428.25;5086450;28;19977;-37
2023/05/16 03:42:04;;;;;;;;;;;;;;;17.30;75.60;99431.53;5093072;28;20003;-36
2023/05/16 03:44:30;;;;;;;;;;;;;;;17.38;75.52;99433.75;5093220;28;20002;-36
2023/05/16 03:46:55;;;;;;;;;;;;;;;17.51;75.06;99433.34;5092517;28;19962;-36
2023/05/16 03:49:23;;;;;;;;;;;;;;;17.54;74.75;99442.78;5092816;28;20439;-36
2023/05/16 03:51:49;;;;;;;;;;;;;;;17.58;75.65;99433.13;5092405;28;20372;-36
2023/05/16 03:54:14;;;;;;;;;;;;;;;17.54;76.33;99443.59;5087212;28;19930;-36
2023/05/16 03:56:39;;;;;;;;;;;;;;;17.37;76.95;99437.53;5092315;28;20412;-36
2023/05/16 03:59:05;;;;;;;;;;;;;;;17.62;75.77;99431.53;5092009;28;19969;-36
2023/05/16 04:01:30;;;;;;;;;;;;;;;17.51;75.28;99440.59;5092114;28;19916;-37
2023/05/16 04:03:55;;;;;;;;;;;;;;;17.54;75.28;99440.91;5091207;28;19912;-36
2023/05/16 04:06:20;;;;;;;;;;;;;;;17.46;75.83;99433.31;5091326;28;19969;-37
2023/05/16 04:08:46;;;;;;;;;;;;;;;17.58;75.50;99425.88;5090996;28;20396;-36
2023/05/16 04:11:11;;;;;;;;;;;;;;;17.63;74.78;99425.09;5091399;28;19912;-37
2023/05/16 04:13:36;;;;;;;;;;;;;;;17.46;75.20;99421.72;5091874;28;20260;-37
2023/05/16 04:16:02;;;;;;;;;;;;;;;17.50;75.46;99423.66;5091462;28;19916;-36
2023/05/16 04:18:27;;;;;;;;;;;;;;;17.41;75.73;99422.50;5091461;28;19963;-36
2023/05/16 04:20:52;;;;;;;;;;;;;;;17.42;76.05;99421.44;5091429;28;19912;-37
2023/05/16 04:23:17;;;;;;;;;;;;;;;17.46;75.96;99421.72;5091669;28;20049;-36
2023/05/16 04:25:43;;;;;;;;;;;;;;;17.71;75.62;99423.81;5091722;28;19931;-36
2023/05/16 04:28:08;;;;;;;;;;;;;;;17.65;74.78;99406.00;5091910;28;19992;-36
2023/05/16 04:30:33;;;;;;;;;;;;;;;17.42;75.79;99423.31;5091668;28;20004;-36
2023/05/16 04:32:59;;;;;;;;;;;;;;;17.53;75.22;99416.94;5091613;28;19938;-37
2023/05/16 04:35:25;;;;;;;;;;;;;;;17.56;75.52;99419.13;5091909;28;20214;-36
2023/05/16 04:37:50;;;;;;;;;;;;;;;17.79;74.50;99426.81;5092051;28;19939;-36
2023/05/16 04:40:16;;;;;;;;;;;;;;;18.06;72.84;99431.34;5091396;28;19939;-36
2023/05/16 04:42:41;;;;;;;;;;;;;;;18.02;73.75;99432.13;5091307;28;19916;-36
2023/05/16 04:45:09;;;;;;;;;;;;;;;18.22;71.47;99439.50;5090333;28;19938;-37
2023/05/16 04:47:35;;;;;;;;;;;;;;;18.38;70.54;99443.09;5090631;28;19916;-36
2023/05/16 04:50:01;;;;;;;;;;;;;;;18.33;69.94;99446.56;5090776;28;20294;-36
2023/05/16 04:52:26;;;;;;;;;;;;;;;18.05;71.09;99436.97;5090812;28;19916;-36
2023/05/16 04:54:51;;;;;;;;;;;;;;;18.31;82.74;99429.84;5090861;28;19912;-36
2023/05/16 04:57:17;;;;;;;;;;;;;;;18.74;70.41;99435.97;5090819;28;20255;-36
2023/05/16 04:59:43;;;;;;;;;;;;;;;18.89;68.34;99440.63;5089756;28;19916;-36
2023/05/16 05:02:08;;;;;;;;;;;;;;;18.57;68.06;99438.88;5090366;28;19920;-36
2023/05/16 05:04:33;;;;;;;;;;;;;;;18.31;68.82;99437.94;5090418;28;20410;-36
2023/05/16 05:06:59;;;;;;;;;;;;;;;18.24;67.96;99438.19;5090585;28;20276;-36
2023/05/16 05:09:24;;;;;;;;;;;;;;;18.56;67.47;99451.53;5090804;28;20379;-36
2023/05/16 05:11:50;;;;;;;;;;;;;;;18.98;66.95;99444.41;5091004;28;19920;-36
2023/05/16 05:14:15;;;;;;;;;;;;;;;19.22;64.38;99444.72;5090808;28;20032;-36
2023/05/16 05:16:40;;;;;;;;;;;;;;;19.35;64.90;99440.69;5089941;28;19912;-37
2023/05/16 05:19:07;;;;;;;;;;;;;;;19.42;63.91;99443.13;5090182;28;19924;-35
2023/05/16 05:21:32;;;;;;;;;;;;;;;19.34;62.60;99447.16;5090201;28;20011;-36
2023/05/16 05:23:58;;;;;;;;;;;;;;;19.36;63.14;99439.59;5090253;28;19995;-36
2023/05/16 05:26:25;;;;;;;;;;;;;;;19.59;62.81;99426.66;5090183;28;20424;-36
2023/05/16 05:28:50;;;;;;;;;;;;;;;19.30;62.75;99429.91;5090642;28;19920;-36
2023/05/16 05:31:17;;;;;;;;;;;;;;;19.46;63.11;99444.22;5089554;28;20221;-36
2023/05/16 05:33:43;;;;;;;;;;;;;;;19.44;63.22;99444.50;5090189;28;19916;-36
2023/05/16 05:36:08;;;;;;;;;;;;;;;19.58;62.89;99442.06;5090790;28;20426;-36
2023/05/16 05:38:34;;;;;;;;;;;;;;;19.50;62.43;99429.91;5090268;28;20343;-35
2023/05/16 05:40:59;;;;;;;;;;;;;;;19.30;62.87;99433.38;5090388;28;20267;-36
2023/05/16 05:43:24;;;;;;;;;;;;;;;19.22;62.85;99423.16;5090382;28;20475;-36
2023/05/16 05:45:50;;;;;;;;;;;;;;;19.24;62.86;99423.69;5090322;28;20102;-36
2023/05/16 05:48:15;;;;;;;;;;;;;;;19.43;62.51;99409.69;5088911;28;19946;-36
2023/05/16 05:50:40;;;;;;;;;;;;;;;19.21;63.34;99410.75;5089582;28;20008;-35
2023/05/16 05:53:06;;;;;;;;;;;;;;;19.26;64.39;99412.63;5090175;28;19998;-36
2023/05/16 05:55:31;;;;;;;;;;;;;;;19.28;64.41;99429.34;5090071;28;19919;-36
2023/05/16 05:57:57;;;;;;;;;;;;;;;19.50;62.78;99427.22;5090217;28;19939;-36
2023/05/16 06:00:22;;;;;;;;;;;;;;;19.62;62.43;99426.13;5089770;28;19912;-36
2023/05/16 06:02:47;;;;;;;;;;;;;;;19.50;62.35;99421.00;5089669;28;19970;-36
2023/05/16 06:05:12;;;;;;;;;;;;;;;19.59;62.35;99418.56;5090127;28;19912;-36
2023/05/16 06:07:38;;;;;;;;;;;;;;;18.93;63.77;99414.75;5089088;28;19916;-36
2023/05/16 06:10:04;;;;;;;;;;;;;;;18.16;67.39;99411.72;5091105;28;19938;-37
2023/05/16 06:12:29;;;;;;;;;;;;;;;18.28;67.31;99422.31;5093449;28;19974;-37
2023/05/16 06:14:55;;;;;;;;;;;;;;;18.58;66.65;99434.28;5093244;28;20353;-36
2023/05/16 06:17:20;;;;;;;;;;;;;;;18.94;64.99;99429.84;5093186;28;19913;-36
2023/05/16 06:19:46;;;;;;;;;;;;;;;18.71;65.44;99415.72;5092946;28;20002;-36
2023/05/16 06:22:11;;;;;;;;;;;;;;;18.87;64.92;99448.16;5091489;28;19918;-36
2023/05/16 06:24:36;;;;;;;;;;;;;;;18.98;65.06;99455.19;5091794;28;19969;-36
2023/05/16 06:27:02;;;;;;;;;;;;;;;18.78;66.35;99422.78;5091011;28;20019;-36
2023/05/16 06:29:27;;;;;;;;;;;;;;;18.97;65.68;99415.03;5091524;28;20423;-36
2023/05/16 06:31:52;;;;;;;;;;;;;;;18.39;66.40;99421.28;5092160;28;20348;-37
2023/05/16 06:34:18;;;;;;;;;;;;;;;18.24;67.11;99423.88;5092781;28;19912;-36
2023/05/16 06:36:43;;;;;;;;;;;;;;;18.40;66.58;99452.53;5092815;28;19916;-36
2023/05/16 06:39:08;;;;;;;;;;;;;;;18.65;65.66;99440.25;5093119;28;19973;-36
2023/05/16 06:41:34;;;;;;;;;;;;;;;18.52;66.30;99403.81;5093030;28;19957;-37
2023/05/16 06:43:59;;;;;;;;;;;;;;;18.49;66.55;99396.28;5093182;28;19916;-37
2023/05/16 06:46:25;;;;;;;;;;;;;;;18.41;66.51;99404.84;5093010;28;19912;-36
2023/05/16 06:48:50;;;;;;;;;;;;;;;18.60;66.43;99421.34;5092774;28;19965;-36
2023/05/16 06:51:15;;;;;;;;;;;;;;;18.62;66.18;99416.50;5092903;28;20004;-37
2023/05/16 06:53:41;;;;;;;;;;;;;;;18.96;65.51;99400.72;5092570;28;20308;-35
2023/05/16 06:56:06;;;;;;;;;;;;;;;19.03;64.66;99403.16;5092857;28;19984;-36
2023/05/16 06:58:31;;;;;;;;;;;;;;;19.22;64.45;99400.75;5093046;28;20370;-36
2023/05/16 07:00:57;;;;;;;;;;;;;;;18.93;64.77;99398.56;5092703;28;20431;-37
2023/05/16 07:03:22;;;;;;;;;;;;;;;18.85;65.57;99401.78;5092678;28;19961;-35
2023/05/16 07:05:50;;;;;;;;;;;;;;;19.02;65.27;99407.75;5091638;28;20000;-37
2023/05/16 07:08:15;;;;;;;;;;;;;;;19.09;64.18;99410.97;5092514;28;19916;-35
2023/05/16 07:10:41;;;;;;;;;;;;;;;19.38;63.35;99394.31;5091151;28;20320;-36
2023/05/16 07:13:06;;;;;;;;;;;;;;;19.57;62.89;99399.94;5092413;28;20352;-37
2023/05/16 07:15:31;;;;;;;;;;;;;;;19.54;62.86;99389.72;5092566;28;19913;-37
2023/05/16 07:17:57;;;;;;;;;;;;;;;19.82;62.33;99395.63;5092288;28;19912;-37
2023/05/16 07:20:22;;;;;;;;;;;;;;;19.71;61.81;99392.13;5092476;28;19942;-37
2023/05/16 07:22:47;;;;;;;;;;;;;;;19.68;63.21;99376.44;5091848;28;20319;-37
2023/05/16 07:25:14;;;;;;;;;;;;;;;19.98;62.10;99377.50;5092427;28;20015;-36
2023/05/16 07:27:40;;;;;;;;;;;;;;;20.26;60.78;99382.28;5092125;28;20000;-36
2023/05/16 07:30:08;;;;;;;;;;;;;;;19.79;62.56;99372.69;5092275;28;20376;-36
2023/05/16 07:32:33;;;;;;;;;;;;;;;20.15;61.83;99363.69;5092209;28;19981;-36
2023/05/16 07:34:58;;;;;;;;;;;;;;;20.01;63.36;99364.28;5092158;28;20014;-37
2023/05/16 07:37:24;;;;;;;;;;;;;;;20.56;61.93;99371.59;5091996;28;19935;-37
2023/05/16 07:39:49;;;;;;;;;;;;;;;20.80;60.27;99374.47;5092020;28;19923;-37
2023/05/16 07:42:14;;;;;;;;;;;;;;;20.83;59.60;99373.94;5091878;28;19921;-38
2023/05/16 07:44:39;;;;;;;;;;;;;;;21.03;59.15;99365.66;5091620;28;19955;-36
2023/05/16 07:47:05;;;;;;;;;;;;;;;20.26;60.78;99371.47;5091798;28;19912;-35
2023/05/16 07:49:30;;;;;;;;;;;;;;;20.54;59.85;99369.16;5091757;28;20455;-36
2023/05/16 07:51:55;;;;;;;;;;;;;;;20.18;61.02;99361.25;5091357;28;19926;-36
2023/05/16 07:54:21;;;;;;;;;;;;;;;20.14;61.90;99368.25;5091792;28;20019;-36
2023/05/16 07:56:46;;;;;;;;;;;;;;;20.70;61.02;99359.94;5091722;28;19912;-37
2023/05/16 07:59:11;;;;;;;;;;;;;;;21.19;59.01;99360.94;5090879;28;20346;-35
2023/05/16 08:01:37;;;;;;;;;;;;;;;21.38;56.97;99347.53;5091367;28;19952;-35
2023/05/16 08:04:02;;;;;;;;;;;;;;;21.50;57.11;99354.50;5089890;28;19912;-35
2023/05/16 08:06:28;;;;;;;;;;;;;;;21.62;57.31;99339.47;5091400;28;19912;-36
2023/05/16 08:08:53;;;;;;;;;;;;;;;20.89;59.29;99341.16;5091309;28;20334;-35
2023/05/16 08:11:21;;;;;;;;;;;;;;;20.80;60.80;99344.72;5091271;28;20351;-36
2023/05/16 08:13:46;;;;;;;;;;;;;;;20.91;60.51;99348.19;5091137;28;19964;-35
2023/05/16 08:16:12;;;;;;;;;;;;;;;21.03;59.80;99344.00;5091002;28;19998;-36
2023/05/16 08:18:37;;;;;;;;;;;;;;;21.39;59.34;99346.41;5090790;28;19944;-36
2023/05/16 08:21:03;;;;;;;;;;;;;;;21.42;58.47;99359.41;5091117;28;19923;-36
2023/05/16 08:23:28;;;;;;;;;;;;;;;21.13;58.91;99340.41;5090780;28;20028;-36
2023/05/16 08:25:53;;;;;;;;;;;;;;;21.21;59.13;99341.69;5090613;28;19916;-36
2023/05/16 08:28:19;;;;;;;;;;;;;;;20.79;60.73;99335.00;5090237;28;19934;-36
2023/05/16 08:30:44;;;;;;;;;;;;;;;21.00;59.86;99341.88;5090770;28;19995;-36
2023/05/16 08:33:09;;;;;;;;;;;;;;;21.46;57.93;99341.53;5089534;28;19923;-36
2023/05/16 08:35:35;;;;;;;;;;;;;;;21.58;57.51;99345.75;5090836;28;19919;-37
2023/05/16 08:38:01;;;;;;;;;;;;;;;20.86;60.31;99341.69;5090134;28;19935;-37
2023/05/16 08:40:27;;;;;;;;;;;;;;;20.98;59.94;99335.97;5090208;28;19916;-36
2023/05/16 08:42:53;;;;;;;;;;;;;;;20.37;61.81;99314.69;5090092;28;19912;-38
2023/05/16 08:45:18;;;;;;;;;;;;;;;20.07;62.96;99319.16;5091423;28;19912;-36
2023/05/16 08:47:44;;;;;;;;;;;;;;;20.04;63.99;99338.59;5091722;28;19916;-36
2023/05/16 08:50:10;;;;;;;;;;;;;;;19.94;64.46;99325.16;5091234;28;20368;-38
2023/05/16 08:52:36;;;;;;;;;;;;;;;19.83;65.24;99324.34;5091932;28;20023;-37
2023/05/16 08:55:08;;;;;;;;;;;;;;;19.97;63.99;99317.31;5091668;28;20002;-36
2023/05/16 08:57:34;;;;;;;;;;;;;;;20.51;62.80;99307.56;5091936;28;19916;-36
2023/05/16 08:59:59;;;;;;;;;;;;;;;20.72;61.83;99319.09;5091002;28;20350;-35
2023/05/16 09:02:25;;;;;;;;;;;;;;;21.28;60.37;99325.94;5090475;28;19931;-36
2023/05/16 09:04:51;;;;;;;;;;;;;;;21.27;59.40;99318.94;5090612;28;20345;-36
2023/05/16 09:07:16;;;;;;;;;;;;;;;21.11;59.40;99309.34;5090748;28;19912;-36
2023/05/16 09:09:42;;;;;;;;;;;;;;;20.78;60.93;99314.47;5090888;28;19916;-36
2023/05/16 09:12:07;;;;;;;;;;;;;;;21.53;59.66;99316.81;5090329;28;20273;-37
2023/05/16 09:14:32;;;;;;;;;;;;;;;21.46;59.50;99319.88;5090768;28;20410;-36
2023/05/16 09:17:04;;;;;;;;;;;;;;;20.71;62.12;99320.16;5090428;28;19923;-36
2023/05/16 09:19:37;;;;;;;;;;;;;;;21.18;60.64;99317.94;5090250;28;20406;-36
2023/05/16 09:22:03;;;;;;;;;;;;;;;21.92;58.85;99312.34;5090294;28;19919;-37
2023/05/16 09:24:28;;;;;;;;;;;;;;;20.77;61.80;99316.38;5090612;28;19912;-37
2023/05/16 09:26:53;;;;;;;;;;;;;;;20.87;62.15;99316.28;5090970;28;19920;-36
2023/05/16 09:29:19;;;;;;;;;;;;;;;21.09;62.53;99312.31;5090685;28;19924;-35
2023/05/16 09:31:44;;;;;;;;;;;;;;;20.83;62.23;99280.09;5090780;28;20445;-35
2023/05/16 09:34:11;;;;;;;;;;;;;;;21.11;61.96;99287.69;5090555;28;19920;-36
2023/05/16 09:36:36;;;;;;;;;;;;;;;21.36;61.23;99290.19;5091006;28;20254;-36
2023/05/16 09:39:02;;;;;;;;;;;;;;;21.59;59.70;99312.16;5091132;28;20381;-36
2023/05/16 09:41:27;;;;;;;;;;;;;;;21.21;61.37;99295.72;5090738;28;20384;-36
2023/05/16 09:43:54;;;;;;;;;;;;;;;21.60;60.34;99279.38;5090587;28;19912;-37
2023/05/16 09:46:24;;;;;;;;;;;;;;;22.11;59.89;99305.06;5094417;28;19978;-36
2023/05/16 09:48:50;;;;;;;;;;;;;;;22.59;58.22;99296.84;5094752;28;20122;-36
2023/05/16 09:51:20;;;;;;;;;;;;;;;22.89;56.67;99267.63;5094886;28;19988;-37
2023/05/16 09:53:45;;;;;;;;;;;;;;;22.59;57.38;99266.22;5094570;28;19912;-36
2023/05/16 09:56:14;;;;;;;;;;;;;;;22.57;57.47;99250.22;5094980;28;19919;-37
2023/05/16 09:58:41;;;;;;;;;;;;;;;22.92;56.67;99260.81;5094884;28;20073;-36
2023/05/16 10:01:07;;;;;;;;;;;;;;;22.80;56.64;99274.84;5094877;28;20308;-35
2023/05/16 10:03:36;;;;;;;;;;;;;;;22.51;56.75;99273.09;5094622;28;19923;-36
2023/05/16 10:06:02;;;;;;;;;;;;;;;22.90;55.72;99282.00;5094502;28;20291;-36
2023/05/16 10:08:30;;;;;;;;;;;;;;;23.34;54.75;99295.13;5094192;28;20007;-36
2023/05/16 10:10:55;;;;;;;;;;;;;;;22.66;55.21;99312.75;5094125;28;20436;-36
2023/05/16 10:13:27;;;;;;;;;;;;;;;22.28;57.13;99306.53;5094152;28;19912;-36
2023/05/16 10:15:54;;;;;;;;;;;;;;;22.25;56.93;99313.31;5094433;28;19995;-36
2023/05/16 10:18:20;;;;;;;;;;;;;;;21.85;57.74;99288.31;5094257;28;19915;-37
2023/05/16 10:20:48;;;;;;;;;;;;;;;22.38;56.81;99274.63;5093776;28;19912;-36
2023/05/16 10:23:16;;;;;;;;;;;;;;;21.75;58.28;99259.44;5093688;28;19908;-35
2023/05/16 10:25:43;;;;;;;;;;;;;;;21.98;58.21;99257.00;5094020;28;19919;-36
2023/05/16 10:28:08;;;;;;;;;;;;;;;21.76;58.37;99255.66;5093432;28;19963;-35
2023/05/16 10:30:34;;;;;;;;;;;;;;;21.26;59.88;99241.56;5093822;28;19950;-36
2023/05/16 10:33:03;;;;;;;;;;;;;;;21.68;59.74;99242.75;5094442;28;20011;-37
2023/05/16 10:35:28;;;;;;;;;;;;;;;22.17;57.71;99254.31;5093913;28;20368;-36
2023/05/16 10:37:54;;;;;;;;;;;;;;;22.13;57.77;99245.16;5093561;28;19912;-35
2023/05/16 10:40:20;;;;;;;;;;;;;;;22.36;57.38;99241.59;5093648;28;20311;-36
2023/05/16 10:43:05;;;;;;;;;;;;;;;22.95;56.74;99227.66;5093702;28;20320;-36
2023/05/16 10:45:30;;;;;;;;;;;;;;;23.12;55.54;99219.00;5092919;28;20352;-36
2023/05/16 10:47:57;;;;;;;;;;;;;;;23.30;55.06;99212.66;5093722;28;20454;-37
2023/05/16 10:50:39;;;;;;;;;;;;;;;23.62;53.91;99206.31;5093565;28;20327;-34
2023/05/16 10:53:28;;;;;;;;;;;;;;;24.18;53.47;99206.28;5093450;28;20303;-35
2023/05/16 10:56:00;;;;;;;;;;;;;;;24.15;52.37;99196.00;5092678;28;19912;-36
2023/05/16 10:58:31;;;;;;;;;;;;;;;24.45;51.41;99207.28;5092855;28;20019;-37
2023/05/16 11:01:20;;;;;;;;;;;;;;;24.32;51.59;99222.53;5092792;28;19912;-37
2023/05/16 11:04:00;;;;;;;;;;;;;;;24.51;52.13;99198.72;5089989;28;19965;-36
2023/05/16 11:06:31;;;;;;;;;;;;;;;25.00;50.93;99187.13;5093029;28;19912;-36
2023/05/16 11:09:10;;;;;;;;;;;;;;;24.33;53.47;99183.34;5093194;28;19946;-37
2023/05/16 11:11:38;;;;;;;;;;;;;;;24.32;52.10;99196.13;5092738;28;19919;-35
2023/05/16 11:14:03;;;;;;;;;;;;;;;25.04;50.95;99193.59;5093058;28;20042;-36
2023/05/16 11:16:29;;;;;;;;;;;;;;;25.50;51.10;99193.13;5093164;28;19952;-38
2023/05/16 11:19:03;;;;;;;;;;;;;;;25.23;48.77;99199.63;5093165;28;20344;-37
2023/05/16 11:21:48;;;;;;;;;;;;;;;24.81;49.74;99201.78;5092858;28;19969;-37
2023/05/16 11:24:29;;;;;;;;;;;;;;;25.00;50.15;99198.03;5092793;28;19912;-37
2023/05/16 11:26:55;;;;;;;;;;;;;;;25.22;49.87;99187.09;5092592;28;20399;-35
2023/05/16 11:29:21;;;;;;;;;;;;;;;25.60;49.09;99183.06;5092772;28;19940;-35
2023/05/16 11:31:47;;;;;;;;;;;;;;;25.90;48.45;99189.53;5092675;28;20017;-36
2023/05/16 11:34:12;;;;;;;;;;;;;;;26.08;48.06;99201.28;5092953;28;19916;-36
2023/05/16 11:36:39;;;;;;;;;;;;;;;26.04;48.85;99208.50;5093052;28;19919;-37
2023/05/16 11:39:05;;;;;;;;;;;;;;;25.08;51.85;99205.44;5092685;28;19969;-37
2023/05/16 11:41:31;;;;;;;;;;;;;;;24.84;50.84;99198.44;5093083;28;19951;-35
2023/05/16 11:43:56;;;;;;;;;;;;;;;24.77;50.78;99192.66;5092582;28;19919;-37
2023/05/16 11:46:22;;;;;;;;;;;;;;;24.90;50.70;99199.09;5092744;28;19912;-36
2023/05/16 11:48:47;;;;;;;;;;;;;;;24.94;51.74;99195.47;5092566;28;19916;-36
2023/05/16 11:51:17;;;;;;;;;;;;;;;25.66;50.66;99188.03;5092822;28;19919;-37
2023/05/16 11:53:43;;;;;;;;;;;;;;;25.99;49.72;99189.56;5092587;28;19912;-36
2023/05/16 11:56:09;;;;;;;;;;;;;;;26.55;49.18;99184.28;5092375;28;20041;-35
2023/05/16 11:58:35;;;;;;;;;;;;;;;25.93;48.91;99184.28;5091924;28;20218;-35
2023/05/16 12:01:03;;;;;;;;;;;;;;;26.12;48.92;99178.53;5092218;28;19912;-36
2023/05/16 12:03:32;;;;;;;;;;;;;;;25.90;48.97;99178.63;5092230;28;19912;-36
2023/05/16 12:05:57;;;;;;;;;;;;;;;26.43;48.52;99174.81;5090802;28;19912;-36
2023/05/16 12:08:25;;;;;;;;;;;;;;;26.17;49.07;99163.91;5091427;28;20310;-37
2023/05/16 12:10:51;;;;;;;;;;;;;;;26.57;46.93;99160.97;5091727;28;19912;-36
2023/05/16 12:13:17;;;;;;;;;;;;;;;26.32;48.04;99174.34;5091745;28;20018;-35
2023/05/16 12:15:43;;;;;;;;;;;;;;;25.59;49.39;99192.34;5091479;28;19998;-36
2023/05/16 12:18:09;;;;;;;;;;;;;;;25.64;50.00;99187.56;5091457;28;19912;-35
2023/05/16 12:20:34;;;;;;;;;;;;;;;26.27;48.49;99190.06;5091362;28;19912;-37
2023/05/16 12:22:59;;;;;;;;;;;;;;;26.79;46.30;99192.75;5091762;28;20266;-36
2023/05/16 12:25:25;;;;;;;;;;;;;;;26.55;47.12;99197.91;5091665;28;20015;-37
2023/05/16 12:27:51;;;;;;;;;;;;;;;26.83;46.47;99182.78;5091198;28;20039;-35
2023/05/16 12:30:17;;;;;;;;;;;;;;;26.78;46.28;99188.41;5091230;28;19958;-35
2023/05/16 12:32:43;;;;;;;;;;;;;;;26.74;45.84;99182.00;5091216;28;19912;-37
2023/05/16 12:35:10;;;;;;;;;;;;;;;27.01;45.88;99183.53;5091320;28;19924;-36
2023/05/16 12:37:35;;;;;;;;;;;;;;;27.47;45.65;99178.38;5091063;28;20355;-37
2023/05/16 12:40:03;;;;;;;;;;;;;;;27.93;45.23;99175.84;5091034;28;19919;-36
2023/05/16 12:42:28;;;;;;;;;;;;;;;27.64;43.80;99158.34;5090903;28;19923;-36
2023/05/16 12:44:56;;;;;;;;;;;;;;;27.10;44.60;99145.28;5090740;28;19912;-36